Elton — AEOA — position and weather

sailwx.info

Track history (hours):
 
Tides and Currents Weather Stations Pressure Air Temp Water Temp Dewpoint Dewpoint Depression Visibility Wind Speed Wind Dir Waves Ship Positions

Elton

Last reported at 2017-Oct-19 05:28 UTC. Time now 2017-Oct-19 05:47 UTC.
Position N 46°12' W 123°48'.

Length 20 m.

MMSI: 369970121.

Date/timePositionNaut miles runAvg speedWind from/ knotsBaromVisibWave heightAir tempDewpointWater temp
2017-Oct-19 05:28N 46°12' W 123°48'0 0.0
2017-Oct-19 04:49N 46°12' W 123°48'0 0.0
2017-Oct-19 04:28N 46°12' W 123°48'0 0.0
2017-Oct-19 03:58N 46°12' W 123°48'0 0.0
2017-Oct-19 03:28N 46°12' W 123°48'0 0.0
2017-Oct-19 02:58N 46°12' W 123°48'0 0.0
2017-Oct-19 02:28N 46°12' W 123°48'0 0.0
2017-Oct-19 01:58N 46°12' W 123°48'0 0.0
2017-Oct-19 01:28N 46°12' W 123°48'0 0.0
2017-Oct-19 00:58N 46°12' W 123°48'0 0.0
2017-Oct-19 00:28N 46°12' W 123°48'0 0.0
2017-Oct-18 23:58N 46°12' W 123°48'0 0.0
2017-Oct-18 23:28N 46°12' W 123°48'0 0.0
2017-Oct-18 22:58N 46°12' W 123°48'0 0.0
2017-Oct-18 22:28N 46°12' W 123°48'0 0.0
2017-Oct-18 21:58N 46°12' W 123°48'0 0.0
2017-Oct-18 21:22N 46°12' W 123°48'0 0.0
2017-Oct-18 20:58N 46°12' W 123°48'0 0.0
2017-Oct-18 20:25N 46°12' W 123°48'0 0.0
2017-Oct-18 19:58N 46°12' W 123°48'0 0.0
2017-Oct-18 19:28N 46°12' W 123°48'0 0.0
2017-Oct-18 18:58N 46°12' W 123°48'0 0.0
2017-Oct-18 18:28N 46°12' W 123°48'0 0.0
2017-Oct-18 17:58N 46°12' W 123°48'0 0.0
2017-Oct-18 17:28N 46°12' W 123°48'0 0.0
2017-Oct-18 16:58N 46°12' W 123°48'0 0.0
2017-Oct-18 16:28N 46°12' W 123°48'0 0.0
2017-Oct-18 15:52N 46°12' W 123°48'0 0.0
2017-Oct-18 15:25N 46°12' W 123°48'0 0.0
2017-Oct-18 14:58N 46°12' W 123°48'0 0.0
2017-Oct-18 13:58N 46°12' W 123°48'0 0.0
2017-Oct-18 13:28N 46°12' W 123°48'0 0.0
2017-Oct-18 12:43N 46°12' W 123°48'0 0.0
2017-Oct-18 12:28N 46°12' W 123°48'0 0.0
2017-Oct-18 11:58N 46°12' W 123°48'0 0.0
2017-Oct-18 11:28N 46°12' W 123°48'0 0.0
2017-Oct-18 10:58N 46°12' W 123°48'0 0.0
2017-Oct-18 10:28N 46°12' W 123°48'0 0.0
2017-Oct-18 09:58N 46°12' W 123°48'0 0.0
2017-Oct-18 09:28N 46°12' W 123°48'0 0.0
2017-Oct-18 08:46N 46°12' W 123°48'0 0.0
2017-Oct-18 08:16N 46°12' W 123°48'0 0.0
2017-Oct-18 07:58N 46°12' W 123°48'0 0.0
2017-Oct-18 07:28N 46°12' W 123°48'0 0.0
2017-Oct-18 06:58N 46°12' W 123°48'0 0.0
2017-Oct-18 06:28N 46°12' W 123°48'0 0.0
2017-Oct-18 05:49N 46°12' W 123°48'0 0.0
2017-Oct-18 05:28N 46°12' W 123°48'0 0.0
2017-Oct-18 04:58N 46°12' W 123°48'0 0.0
2017-Oct-18 04:25N 46°12' W 123°48'0 0.0
2017-Oct-18 03:52N 46°12' W 123°48'0 0.0
2017-Oct-18 03:28N 46°12' W 123°48'0 0.0
2017-Oct-18 02:55N 46°12' W 123°48'0 0.0
2017-Oct-18 02:28N 46°12' W 123°48'0 0.0
2017-Oct-18 01:58N 46°12' W 123°48'0 0.0
2017-Oct-18 01:28N 46°12' W 123°48'0 0.0
2017-Oct-18 00:58N 46°12' W 123°48'0 0.0
2017-Oct-18 00:28N 46°12' W 123°48'0 0.0
2017-Oct-17 23:52N 46°12' W 123°48'0 0.0
2017-Oct-17 23:25N 46°12' W 123°48'0 0.0
2017-Oct-17 22:58N 46°12' W 123°48'0 0.0
2017-Oct-17 22:28N 46°12' W 123°48'0 0.0
2017-Oct-17 21:58N 46°12' W 123°48'0 0.0
2017-Oct-17 21:28N 46°12' W 123°48'0 0.0
2017-Oct-17 20:58N 46°12' W 123°48'0 0.0
2017-Oct-17 20:31N 46°12' W 123°48'0 0.0
2017-Oct-17 20:01N 46°12' W 123°48'0 0.0
2017-Oct-17 19:31N 46°12' W 123°48'0 0.0
2017-Oct-17 19:01N 46°12' W 123°48'3 6.2
2017-Oct-17 18:31N 46°14' W 123°44'1 2.7
2017-Oct-17 18:00N 46°14' W 123°43'3 5.5
2017-Oct-17 17:31N 46°13' W 123°46'1 2.8
2017-Oct-17 17:00N 46°13' W 123°44'0 0.7
2017-Oct-17 16:30N 46°13' W 123°45'1 2.3
2017-Oct-17 16:00N 46°13' W 123°46'1 2.2
2017-Oct-17 15:31N 46°13' W 123°45'2 4.2
2017-Oct-17 15:00N 46°12' W 123°47'1 1.1
2017-Oct-17 14:30N 46°12' W 123°48'0 0.0
2017-Oct-17 14:00N 46°12' W 123°48'0 0.0
2017-Oct-17 13:27N 46°12' W 123°48'0 0.0
2017-Oct-17 13:00N 46°12' W 123°48'0 0.0
2017-Oct-17 12:29N 46°12' W 123°48'0 0.0
2017-Oct-17 12:00N 46°12' W 123°48'0 0.0
2017-Oct-17 11:30N 46°12' W 123°48'0 0.0
2017-Oct-17 10:57N 46°12' W 123°48'0 0.0
2017-Oct-17 10:30N 46°12' W 123°48'0 0.0
2017-Oct-17 10:00N 46°12' W 123°48'0 0.0
2017-Oct-17 09:30N 46°12' W 123°48'0 0.0
2017-Oct-17 09:00N 46°12' W 123°48'0 0.0
2017-Oct-17 08:29N 46°12' W 123°48'0 0.0
2017-Oct-17 08:00N 46°12' W 123°48'0 0.0
2017-Oct-17 07:29N 46°12' W 123°48'0 0.0
2017-Oct-17 07:00N 46°12' W 123°48'0 0.0
2017-Oct-17 06:30N 46°12' W 123°48'0 0.0
2017-Oct-17 05:57N 46°12' W 123°48'0 0.0
2017-Oct-17 05:30N 46°12' W 123°48'0 0.0
2017-Oct-17 05:00N 46°12' W 123°48'0 0.0
2017-Oct-17 04:26N 46°12' W 123°48'0 0.0
2017-Oct-17 04:00N 46°12' W 123°48'0 0.0
2017-Oct-17 03:15N 46°12' W 123°48'0 0.0
2017-Oct-17 02:57N 46°12' W 123°48'0 0.0
2017-Oct-17 02:30N 46°12' W 123°48'0 0.0
2017-Oct-17 01:59N 46°12' W 123°48'0 0.0
2017-Oct-17 01:29N 46°12' W 123°48'0 0.0
2017-Oct-17 01:00N 46°12' W 123°48'0 0.0
2017-Oct-17 00:23N 46°12' W 123°48'0 0.0
2017-Oct-16 23:57N 46°12' W 123°48'0 0.0
2017-Oct-16 23:30N 46°12' W 123°48'0 0.0
2017-Oct-16 22:59N 46°12' W 123°48'0 0.0
2017-Oct-16 22:30N 46°12' W 123°48'0 0.0
2017-Oct-16 21:59N 46°12' W 123°48'0 0.0
2017-Oct-16 21:27N 46°12' W 123°48'0 0.0
2017-Oct-16 21:00N 46°12' W 123°48'1 2.3
2017-Oct-16 20:30N 46°12' W 123°47'510.7
2017-Oct-16 20:00N 46°15' W 123°40'1 1.9
2017-Oct-16 19:30N 46°16' W 123°39'2 4.9
2017-Oct-16 19:00N 46°15' W 123°42'1 1.9
2017-Oct-16 18:30N 46°15' W 123°41'1 2.9
2017-Oct-16 18:00N 46°15' W 123°39'0 0.6
2017-Oct-16 17:30N 46°16' W 123°38'2 3.2
2017-Oct-16 17:00N 46°15' W 123°41'2 4.0
2017-Oct-16 16:31N 46°14' W 123°43'611.0
2017-Oct-16 16:00N 46°12' W 123°50'0 0.0
2017-Oct-16 15:30N 46°12' W 123°50'0 0.0
2017-Oct-16 15:00N 46°12' W 123°50'2 2.7
2017-Oct-16 14:27N 46°12' W 123°48'0 0.0
2017-Oct-16 13:30N 46°12' W 123°48'0 0.0
2017-Oct-16 13:00N 46°12' W 123°48'0 0.0
2017-Oct-16 12:30N 46°12' W 123°48'0 0.0
2017-Oct-16 12:00N 46°12' W 123°48'0 0.0
2017-Oct-16 11:30N 46°12' W 123°48'0 0.0
2017-Oct-16 11:00N 46°12' W 123°48'0 0.0
2017-Oct-16 10:30N 46°12' W 123°48'0 0.0
2017-Oct-16 10:00N 46°12' W 123°48'0 0.0
2017-Oct-16 09:30N 46°12' W 123°48'0 0.0
2017-Oct-16 09:00N 46°12' W 123°48'0 0.0
2017-Oct-16 08:30N 46°12' W 123°48'0 0.0
2017-Oct-16 08:00N 46°12' W 123°48'0 0.0
2017-Oct-16 07:21N 46°12' W 123°48'0 0.0
2017-Oct-16 07:00N 46°12' W 123°48'0 0.0
2017-Oct-16 06:30N 46°12' W 123°48'0 0.0
2017-Oct-16 06:00N 46°12' W 123°48'0 0.0
2017-Oct-16 05:27N 46°12' W 123°48'0 0.0
2017-Oct-16 05:00N 46°12' W 123°48'0 0.0
2017-Oct-16 04:27N 46°12' W 123°48'0 0.0
2017-Oct-16 04:00N 46°12' W 123°48'0 0.0
2017-Oct-16 03:27N 46°12' W 123°48'0 0.0
2017-Oct-16 03:00N 46°12' W 123°48'0 0.0
2017-Oct-16 02:30N 46°12' W 123°48'0 0.0
2017-Oct-16 02:00N 46°12' W 123°48'0 0.0
2017-Oct-16 01:30N 46°12' W 123°48'0 0.0
2017-Oct-16 00:57N 46°12' W 123°48'0 0.0
2017-Oct-16 00:27N 46°12' W 123°48'0 0.0
2017-Oct-16 00:00N 46°12' W 123°48'0 0.0
2017-Oct-15 23:30N 46°12' W 123°48'0 0.0
2017-Oct-15 23:00N 46°12' W 123°48'0 0.0
2017-Oct-15 22:30N 46°12' W 123°48'0 0.0
2017-Oct-15 22:00N 46°12' W 123°48'0 0.0
2017-Oct-15 21:27N 46°12' W 123°48'0 0.0
2017-Oct-15 21:00N 46°12' W 123°48'0 0.0
2017-Oct-15 20:30N 46°12' W 123°48'0 0.0
2017-Oct-15 19:54N 46°12' W 123°48'0 0.0
2017-Oct-15 19:24N 46°12' W 123°48'0 0.0
2017-Oct-15 19:00N 46°12' W 123°48'0 0.0
2017-Oct-15 18:30N 46°12' W 123°48'0 0.0
2017-Oct-15 18:00N 46°12' W 123°48'0 0.0
2017-Oct-15 17:30N 46°12' W 123°48'0 0.0
2017-Oct-15 17:00N 46°12' W 123°48'0 0.0
2017-Oct-15 16:27N 46°12' W 123°48'0 0.0
2017-Oct-15 16:00N 46°12' W 123°48'0 0.0
2017-Oct-15 15:30N 46°12' W 123°48'0 0.0
2017-Oct-15 15:00N 46°12' W 123°48'0 0.0
2017-Oct-15 13:54N 46°12' W 123°48'0 0.0
2017-Oct-15 13:27N 46°12' W 123°48'0 0.0
2017-Oct-15 13:00N 46°12' W 123°48'0 0.0
2017-Oct-15 12:27N 46°12' W 123°48'0 0.0
2017-Oct-15 12:00N 46°12' W 123°48'0 0.0
2017-Oct-15 11:30N 46°12' W 123°48'0 0.0
2017-Oct-15 11:00N 46°12' W 123°48'0 0.0
2017-Oct-15 10:30N 46°12' W 123°48'0 0.0
2017-Oct-15 10:00N 46°12' W 123°48'0 0.0
2017-Oct-15 09:27N 46°12' W 123°48'0 0.0
2017-Oct-15 09:00N 46°12' W 123°48'0 0.0
2017-Oct-15 08:30N 46°12' W 123°48'0 0.0
2017-Oct-15 08:00N 46°12' W 123°48'0 0.0
2017-Oct-15 07:30N 46°12' W 123°48'0 0.0
2017-Oct-15 06:57N 46°12' W 123°48'0 0.0
2017-Oct-15 06:30N 46°12' W 123°48'0 0.0
2017-Oct-15 06:00N 46°12' W 123°48'0 0.0
2017-Oct-15 05:30N 46°12' W 123°48'0 0.0
2017-Oct-15 05:00N 46°12' W 123°48'0 0.0
2017-Oct-15 04:30N 46°12' W 123°48'0 0.0
2017-Oct-15 04:00N 46°12' W 123°48'0 0.0
2017-Oct-15 03:30N 46°12' W 123°48'0 0.0
2017-Oct-15 03:00N 46°12' W 123°48'0 0.0
2017-Oct-15 01:39N 46°12' W 123°48'0 0.0
2017-Oct-15 01:18N 46°12' W 123°48'0 0.0
2017-Oct-15 01:00N 46°12' W 123°48'0 0.0
2017-Oct-15 00:30N 46°12' W 123°48'0 0.0
2017-Oct-14 23:57N 46°12' W 123°48'0 0.0
2017-Oct-14 23:30N 46°12' W 123°48'0 0.0
2017-Oct-14 22:51N 46°12' W 123°48'0 0.0
2017-Oct-14 22:27N 46°12' W 123°48'0 0.0
2017-Oct-14 22:00N 46°12' W 123°48'0 0.0
2017-Oct-14 21:30N 46°12' W 123°48'0 0.0
2017-Oct-14 20:57N 46°12' W 123°48'0 0.0
2017-Oct-14 20:30N 46°12' W 123°48'0 0.0
2017-Oct-14 20:00N 46°12' W 123°48'0 0.0
2017-Oct-14 19:30N 46°12' W 123°48'0 0.0
2017-Oct-14 19:00N 46°12' W 123°48'0 0.0
2017-Oct-14 18:18N 46°12' W 123°48'0 0.0
2017-Oct-14 17:54N 46°12' W 123°48'0 0.0
2017-Oct-14 17:30N 46°12' W 123°48'0 0.0
2017-Oct-14 17:00N 46°12' W 123°48'0 0.0
2017-Oct-14 16:30N 46°12' W 123°48'0 0.0
2017-Oct-14 16:00N 46°12' W 123°48'0 0.0
2017-Oct-14 15:09N 46°12' W 123°48'0 0.0
2017-Oct-14 15:00N 46°12' W 123°48'0 0.0
2017-Oct-14 14:30N 46°12' W 123°48'0 0.0
2017-Oct-14 14:00N 46°12' W 123°48'0 0.0
2017-Oct-14 13:30N 46°12' W 123°48'0 0.0
2017-Oct-14 13:00N 46°12' W 123°48'0 0.0
2017-Oct-14 12:27N 46°12' W 123°48'0 0.0
2017-Oct-14 12:00N 46°12' W 123°48'0 0.0
2017-Oct-14 11:30N 46°12' W 123°48'0 0.0
2017-Oct-14 11:00N 46°12' W 123°48'0 0.0
2017-Oct-14 10:24N 46°12' W 123°48'0 0.0
2017-Oct-14 10:00N 46°12' W 123°48'0 0.0
2017-Oct-14 09:27N 46°12' W 123°48'0 0.0
2017-Oct-14 09:00N 46°12' W 123°48'0 0.0
2017-Oct-14 08:30N 46°12' W 123°48'0 0.0
2017-Oct-14 08:00N 46°12' W 123°48'0 0.0
2017-Oct-14 07:30N 46°12' W 123°48'0 0.0
2017-Oct-14 07:00N 46°12' W 123°48'0 0.0
2017-Oct-14 06:30N 46°12' W 123°48'0 0.0
2017-Oct-14 05:57N 46°12' W 123°48'0 0.0
2017-Oct-14 05:30N 46°12' W 123°48'0 0.0
2017-Oct-14 05:00N 46°12' W 123°48'0 0.0
2017-Oct-14 04:27N 46°12' W 123°48'0 0.0
2017-Oct-14 04:00N 46°12' W 123°48'0 0.0
2017-Oct-14 03:21N 46°12' W 123°48'0 0.0
2017-Oct-14 03:00N 46°12' W 123°48'0 0.0
2017-Oct-14 02:30N 46°12' W 123°48'0 0.0
2017-Oct-14 02:00N 46°12' W 123°48'0 0.0
2017-Oct-14 01:30N 46°12' W 123°48'0 0.0
2017-Oct-14 01:00N 46°12' W 123°48'0 0.0
2017-Oct-14 00:30N 46°12' W 123°48'0 0.0
2017-Oct-14 00:00N 46°12' W 123°48'0 0.0
2017-Oct-13 23:30N 46°12' W 123°48'0 0.0
2017-Oct-13 23:00N 46°12' W 123°48'0 0.0
2017-Oct-13 22:30N 46°12' W 123°48'0 0.0
2017-Oct-13 22:00N 46°12' W 123°48'0 0.0
2017-Oct-13 21:15N 46°12' W 123°48'0 0.0
2017-Oct-13 21:00N 46°12' W 123°48'0 0.0
2017-Oct-13 20:30N 46°12' W 123°48'0 0.0
2017-Oct-13 20:00N 46°12' W 123°48'0 0.0
2017-Oct-13 19:30N 46°12' W 123°48'0 0.0
2017-Oct-13 19:00N 46°12' W 123°48'0 0.0
2017-Oct-13 18:21N 46°12' W 123°48'0 0.0
2017-Oct-13 18:00N 46°12' W 123°48'0 0.0
2017-Oct-13 17:12N 46°12' W 123°48'0 0.0
2017-Oct-13 17:00N 46°12' W 123°48'0 0.0
2017-Oct-13 16:30N 46°12' W 123°48'0 0.0
2017-Oct-13 16:00N 46°12' W 123°48'0 0.0
2017-Oct-13 15:30N 46°12' W 123°48'0 0.0
2017-Oct-13 15:00N 46°12' W 123°48'0 0.0
2017-Oct-13 14:30N 46°12' W 123°48'0 0.0
2017-Oct-13 13:51N 46°12' W 123°48'0 0.0
2017-Oct-13 13:30N 46°12' W 123°48'0 0.0
2017-Oct-13 12:42N 46°12' W 123°48'0 0.0
2017-Oct-13 12:30N 46°12' W 123°48'0 0.0
2017-Oct-13 11:54N 46°12' W 123°48'0 0.0
2017-Oct-13 11:30N 46°12' W 123°48'0 0.0
2017-Oct-13 11:00N 46°12' W 123°48'0 0.0
2017-Oct-13 10:30N 46°12' W 123°48'0 0.0
2017-Oct-13 10:00N 46°12' W 123°48'0 0.0
2017-Oct-13 09:15N 46°12' W 123°48'0 0.0
2017-Oct-13 09:00N 46°12' W 123°48'0 0.0
2017-Oct-13 08:12N 46°12' W 123°48'0 0.0
2017-Oct-13 07:51N 46°12' W 123°48'0 0.0
2017-Oct-13 07:30N 46°12' W 123°48'0 0.0
2017-Oct-13 06:57N 46°12' W 123°48'0 0.0
2017-Oct-13 06:30N 46°12' W 123°48'0 0.0
2017-Oct-13 05:54N 46°12' W 123°48'0 0.0
2017-Oct-13 05:30N 46°12' W 123°48'0 0.0
2017-Oct-13 05:00N 46°12' W 123°48'0 0.0
2017-Oct-13 04:30N 46°12' W 123°48'0 0.0
2017-Oct-13 04:00N 46°12' W 123°48'0 0.0
2017-Oct-13 03:30N 46°12' W 123°48'0 0.0
2017-Oct-13 03:00N 46°12' W 123°48'0 0.0
2017-Oct-13 02:21N 46°12' W 123°48'0 0.0
2017-Oct-13 02:00N 46°12' W 123°48'0 0.0
2017-Oct-13 01:30N 46°12' W 123°48'0 0.0
2017-Oct-13 01:00N 46°12' W 123°48'0 0.0
2017-Oct-13 00:30N 46°12' W 123°48'0 0.0
2017-Oct-13 00:00N 46°12' W 123°48'0 0.0
2017-Oct-12 23:30N 46°12' W 123°48'0 0.0
2017-Oct-12 23:00N 46°12' W 123°48'0 0.0
2017-Oct-12 22:27N 46°12' W 123°48'0 0.0
2017-Oct-12 21:54N 46°12' W 123°48'0 0.0
2017-Oct-12 21:30N 46°12' W 123°48'0 0.0
2017-Oct-12 21:00N 46°12' W 123°48'0 0.0
2017-Oct-12 20:30N 46°12' W 123°48'0 0.0
2017-Oct-12 20:00N 46°12' W 123°48'0 0.0
2017-Oct-12 19:30N 46°12' W 123°48'0 0.0
2017-Oct-12 19:00N 46°12' W 123°48'0 0.9
2017-Oct-12 18:30N 46°12' W 123°49'2 4.6
2017-Oct-12 18:01N 46°11' W 123°52'1 1.5
2017-Oct-12 17:30N 46°12' W 123°53'2 2.8
2017-Oct-12 16:56N 46°12' W 123°55'2 4.0
2017-Oct-12 16:30N 46°11' W 123°53'1 2.5
2017-Oct-12 16:01N 46°12' W 123°51'1 1.8
2017-Oct-12 15:31N 46°12' W 123°52'2 4.3
2017-Oct-12 15:01N 46°12' W 123°55'3 6.2
2017-Oct-12 14:31N 46°12' W 123°51'2 2.6
2017-Oct-12 13:43N 46°12' W 123°48'0 0.0
2017-Oct-12 13:28N 46°12' W 123°48'0 0.0
2017-Oct-12 12:55N 46°12' W 123°48'0 0.0
2017-Oct-12 12:28N 46°12' W 123°48'0 0.0
2017-Oct-12 11:52N 46°12' W 123°48'0 0.0
2017-Oct-12 11:28N 46°12' W 123°48'0 0.0
2017-Oct-12 10:55N 46°12' W 123°48'0 0.0
2017-Oct-12 10:28N 46°12' W 123°48'0 0.0
2017-Oct-12 09:49N 46°12' W 123°48'0 0.0
2017-Oct-12 09:28N 46°12' W 123°48'0 0.0
2017-Oct-12 08:52N 46°12' W 123°48'0 0.0
2017-Oct-12 08:28N 46°12' W 123°48'0 0.0
2017-Oct-12 07:44N 46°12' W 123°48'0 0.0
2017-Oct-12 07:28N 46°12' W 123°48'0 0.0
2017-Oct-12 06:56N 46°12' W 123°48'0 0.0
2017-Oct-12 06:29N 46°12' W 123°48'0 0.0
2017-Oct-12 05:58N 46°12' W 123°48'0 0.0
2017-Oct-12 05:25N 46°12' W 123°48'0 0.0
2017-Oct-12 04:58N 46°12' W 123°48'0 0.0
2017-Oct-12 04:25N 46°12' W 123°48'0 0.0
2017-Oct-12 03:58N 46°12' W 123°48'0 0.0
2017-Oct-12 03:28N 46°12' W 123°48'0 0.0
2017-Oct-12 02:58N 46°12' W 123°48'0 0.0
2017-Oct-12 02:25N 46°12' W 123°48'0 0.0
2017-Oct-12 01:58N 46°12' W 123°48'0 0.0
2017-Oct-12 01:28N 46°12' W 123°48'0 0.0
2017-Oct-12 00:55N 46°12' W 123°48'0 0.0
2017-Oct-12 00:07N 46°12' W 123°48'0 0.0
2017-Oct-11 23:46N 46°12' W 123°48'0 0.0
2017-Oct-11 23:28N 46°12' W 123°48'0 0.0
2017-Oct-11 22:58N 46°12' W 123°48'0 0.0
2017-Oct-11 22:19N 46°12' W 123°48'0 0.0
2017-Oct-11 21:55N 46°12' W 123°48'0 0.0
2017-Oct-11 21:28N 46°12' W 123°48'0 0.0
2017-Oct-11 20:58N 46°12' W 123°48'0 0.0
2017-Oct-11 20:28N 46°12' W 123°48'0 0.0
2017-Oct-11 19:58N 46°12' W 123°48'0 0.0
2017-Oct-11 19:28N 46°12' W 123°48'0 0.0
2017-Oct-11 18:58N 46°12' W 123°48'0 0.0
2017-Oct-11 18:28N 46°12' W 123°48'0 0.0
2017-Oct-11 17:58N 46°12' W 123°48'0 0.0
2017-Oct-11 17:28N 46°12' W 123°48'0 0.0
2017-Oct-11 16:58N 46°12' W 123°48'0 0.0
2017-Oct-10 23:55N 46°12' W 123°48'0 0.0
2017-Oct-10 23:29N 46°12' W 123°48'0 0.0
2017-Oct-10 22:55N 46°12' W 123°48'0 0.0
2017-Oct-10 22:28N 46°12' W 123°48'0 0.0
2017-Oct-10 21:59N 46°12' W 123°48'4 8.3
2017-Oct-10 21:30N 46°11' W 123°54'1 2.6
2017-Oct-10 21:00N 46°12' W 123°56'0 0.2
2017-Oct-10 20:30N 46°12' W 123°55'1 1.1
2017-Oct-10 20:01N 46°12' W 123°56'0 1.0
2017-Oct-10 19:30N 46°12' W 123°57'1 1.6
2017-Oct-10 19:01N 46°13' W 123°57'4 8.1
2017-Oct-10 18:30N 46°12' W 123°52'3 4.3
2017-Oct-10 17:55N 46°12' W 123°48'0 0.0
2017-Oct-10 17:28N 46°12' W 123°48'0 0.0
2017-Oct-10 16:55N 46°12' W 123°48'0 0.0
2017-Oct-10 16:28N 46°12' W 123°48'0 0.0
2017-Oct-10 15:58N 46°12' W 123°48'0 0.0
2017-Oct-10 15:25N 46°12' W 123°48'0 0.0
2017-Oct-10 14:58N 46°12' W 123°48'0 0.0
2017-Oct-10 13:58N 46°12' W 123°48'0 0.0
2017-Oct-10 13:28N 46°12' W 123°48'0 0.0
2017-Oct-10 12:58N 46°12' W 123°48'0 0.0
2017-Oct-10 12:07N 46°12' W 123°48'0 0.0
2017-Oct-10 11:58N 46°12' W 123°48'0 0.0
2017-Oct-10 11:28N 46°12' W 123°48'0 0.0
2017-Oct-10 10:58N 46°12' W 123°48'0 0.0
2017-Oct-10 10:28N 46°12' W 123°48'0 0.0
2017-Oct-10 09:58N 46°12' W 123°48'0 0.0
2017-Oct-10 09:16N 46°12' W 123°48'0 0.0
2017-Oct-10 08:49N 46°12' W 123°48'0 0.0
2017-Oct-10 08:28N 46°12' W 123°48'0 0.0
2017-Oct-10 07:58N 46°12' W 123°48'0 0.0
2017-Oct-10 07:28N 46°12' W 123°48'0 0.0
2017-Oct-10 06:58N 46°12' W 123°48'0 0.0
2017-Oct-10 06:28N 46°12' W 123°48'0 0.0
2017-Oct-10 05:55N 46°12' W 123°48'0 0.0
2017-Oct-10 05:28N 46°12' W 123°48'0 0.0
2017-Oct-10 04:58N 46°12' W 123°48'0 0.0
2017-Oct-10 04:28N 46°12' W 123°48'0 0.0
2017-Oct-10 03:49N 46°12' W 123°48'0 0.0
2017-Oct-10 03:28N 46°12' W 123°48'0 0.0
2017-Oct-10 02:55N 46°12' W 123°48'0 0.0
2017-Oct-10 02:28N 46°12' W 123°48'0 0.0
2017-Oct-10 01:58N 46°12' W 123°48'0 0.0
2017-Oct-10 01:10N 46°12' W 123°48'0 0.0
2017-Oct-10 00:58N 46°12' W 123°48'0 0.0
2017-Oct-10 00:28N 46°12' W 123°48'0 0.0
2017-Oct-09 23:58N 46°12' W 123°48'0 0.0
2017-Oct-09 23:28N 46°12' W 123°48'0 0.0
2017-Oct-09 22:58N 46°12' W 123°48'0 0.0
2017-Oct-09 22:28N 46°12' W 123°48'0 0.0
2017-Oct-09 21:58N 46°12' W 123°48'0 0.0
2017-Oct-09 21:25N 46°12' W 123°48'0 0.0
2017-Oct-09 20:58N 46°12' W 123°48'0 0.0
2017-Oct-09 20:28N 46°12' W 123°48'0 0.0
2017-Oct-09 19:58N 46°12' W 123°48'0 0.0
2017-Oct-09 19:25N 46°12' W 123°48'0 0.0
2017-Oct-09 18:58N 46°12' W 123°48'0 0.0
2017-Oct-09 18:28N 46°12' W 123°48'0 0.0
2017-Oct-09 17:58N 46°12' W 123°48'0 0.0
2017-Oct-09 17:25N 46°12' W 123°48'0 0.0
2017-Oct-09 16:58N 46°12' W 123°48'0 0.0
2017-Oct-09 16:28N 46°12' W 123°48'0 0.0
2017-Oct-09 15:55N 46°12' W 123°48'0 0.0
2017-Oct-09 15:28N 46°12' W 123°48'0 0.0
2017-Oct-09 14:58N 46°12' W 123°48'0 0.0
2017-Oct-09 14:28N 46°12' W 123°48'0 0.0
2017-Oct-09 13:58N 46°12' W 123°48'0 0.0
2017-Oct-09 13:28N 46°12' W 123°48'0 0.0
2017-Oct-09 12:55N 46°12' W 123°48'0 0.0
2017-Oct-09 12:28N 46°12' W 123°48'0 0.0
2017-Oct-09 11:58N 46°12' W 123°48'0 0.0
2017-Oct-09 11:28N 46°12' W 123°48'0 0.0
2017-Oct-09 10:58N 46°12' W 123°48'0 0.0
2017-Oct-09 10:13N 46°12' W 123°48'0 0.0
2017-Oct-09 09:58N 46°12' W 123°48'0 0.0
2017-Oct-09 09:04N 46°12' W 123°48'0 0.0
2017-Oct-09 08:58N 46°12' W 123°48'0 0.0
2017-Oct-09 08:28N 46°12' W 123°48'0 0.0
2017-Oct-09 07:58N 46°12' W 123°48'0 0.0
2017-Oct-09 07:28N 46°12' W 123°48'0 0.0
2017-Oct-09 06:58N 46°12' W 123°48'0 0.0
2017-Oct-09 06:28N 46°12' W 123°48'0 0.0
2017-Oct-09 05:58N 46°12' W 123°48'  
Track history (hours):
 
Tides and Currents Weather Stations Pressure Air Temp Water Temp Dewpoint Dewpoint Depression Visibility Wind Speed Wind Dir Waves Ship Positions

Elton

Last reported at 2017-Oct-19 05:28 UTC. Time now 2017-Oct-19 05:47 UTC.
Position N 46°12' W 123°48'.

Length 20 m.

MMSI: 369970121.

Date/timePositionNaut miles runAvg speedWind from/ knotsBaromVisibWave heightAir tempDewpointWater temp
2017-Oct-19 05:28N 46°12' W 123°48'0 0.0
2017-Oct-19 04:49N 46°12' W 123°48'0 0.0
2017-Oct-19 04:28N 46°12' W 123°48'0 0.0
2017-Oct-19 03:58N 46°12' W 123°48'0 0.0
2017-Oct-19 03:28N 46°12' W 123°48'0 0.0
2017-Oct-19 02:58N 46°12' W 123°48'0 0.0
2017-Oct-19 02:28N 46°12' W 123°48'0 0.0
2017-Oct-19 01:58N 46°12' W 123°48'0 0.0
2017-Oct-19 01:28N 46°12' W 123°48'0 0.0
2017-Oct-19 00:58N 46°12' W 123°48'0 0.0
2017-Oct-19 00:28N 46°12' W 123°48'0 0.0
2017-Oct-18 23:58N 46°12' W 123°48'0 0.0
2017-Oct-18 23:28N 46°12' W 123°48'0 0.0
2017-Oct-18 22:58N 46°12' W 123°48'0 0.0
2017-Oct-18 22:28N 46°12' W 123°48'0 0.0
2017-Oct-18 21:58N 46°12' W 123°48'0 0.0
2017-Oct-18 21:22N 46°12' W 123°48'0 0.0
2017-Oct-18 20:58N 46°12' W 123°48'0 0.0
2017-Oct-18 20:25N 46°12' W 123°48'0 0.0
2017-Oct-18 19:58N 46°12' W 123°48'0 0.0
2017-Oct-18 19:28N 46°12' W 123°48'0 0.0
2017-Oct-18 18:58N 46°12' W 123°48'0 0.0
2017-Oct-18 18:28N 46°12' W 123°48'0 0.0
2017-Oct-18 17:58N 46°12' W 123°48'0 0.0
2017-Oct-18 17:28N 46°12' W 123°48'0 0.0
2017-Oct-18 16:58N 46°12' W 123°48'0 0.0
2017-Oct-18 16:28N 46°12' W 123°48'0 0.0
2017-Oct-18 15:52N 46°12' W 123°48'0 0.0
2017-Oct-18 15:25N 46°12' W 123°48'0 0.0
2017-Oct-18 14:58N 46°12' W 123°48'0 0.0
2017-Oct-18 13:58N 46°12' W 123°48'0 0.0
2017-Oct-18 13:28N 46°12' W 123°48'0 0.0
2017-Oct-18 12:43N 46°12' W 123°48'0 0.0
2017-Oct-18 12:28N 46°12' W 123°48'0 0.0
2017-Oct-18 11:58N 46°12' W 123°48'0 0.0
2017-Oct-18 11:28N 46°12' W 123°48'0 0.0
2017-Oct-18 10:58N 46°12' W 123°48'0 0.0
2017-Oct-18 10:28N 46°12' W 123°48'0 0.0
2017-Oct-18 09:58N 46°12' W 123°48'0 0.0
2017-Oct-18 09:28N 46°12' W 123°48'0 0.0
2017-Oct-18 08:46N 46°12' W 123°48'0 0.0
2017-Oct-18 08:16N 46°12' W 123°48'0 0.0
2017-Oct-18 07:58N 46°12' W 123°48'0 0.0
2017-Oct-18 07:28N 46°12' W 123°48'0 0.0
2017-Oct-18 06:58N 46°12' W 123°48'0 0.0
2017-Oct-18 06:28N 46°12' W 123°48'0 0.0
2017-Oct-18 05:49N 46°12' W 123°48'0 0.0
2017-Oct-18 05:28N 46°12' W 123°48'0 0.0
2017-Oct-18 04:58N 46°12' W 123°48'0 0.0
2017-Oct-18 04:25N 46°12' W 123°48'0 0.0
2017-Oct-18 03:52N 46°12' W 123°48'0 0.0
2017-Oct-18 03:28N 46°12' W 123°48'0 0.0
2017-Oct-18 02:55N 46°12' W 123°48'0 0.0
2017-Oct-18 02:28N 46°12' W 123°48'0 0.0
2017-Oct-18 01:58N 46°12' W 123°48'0 0.0
2017-Oct-18 01:28N 46°12' W 123°48'0 0.0
2017-Oct-18 00:58N 46°12' W 123°48'0 0.0
2017-Oct-18 00:28N 46°12' W 123°48'0 0.0
2017-Oct-17 23:52N 46°12' W 123°48'0 0.0
2017-Oct-17 23:25N 46°12' W 123°48'0 0.0
2017-Oct-17 22:58N 46°12' W 123°48'0 0.0
2017-Oct-17 22:28N 46°12' W 123°48'0 0.0
2017-Oct-17 21:58N 46°12' W 123°48'0 0.0
2017-Oct-17 21:28N 46°12' W 123°48'0 0.0
2017-Oct-17 20:58N 46°12' W 123°48'0 0.0
2017-Oct-17 20:31N 46°12' W 123°48'0 0.0
2017-Oct-17 20:01N 46°12' W 123°48'0 0.0
2017-Oct-17 19:31N 46°12' W 123°48'0 0.0
2017-Oct-17 19:01N 46°12' W 123°48'3 6.2
2017-Oct-17 18:31N 46°14' W 123°44'1 2.7
2017-Oct-17 18:00N 46°14' W 123°43'3 5.5
2017-Oct-17 17:31N 46°13' W 123°46'1 2.8
2017-Oct-17 17:00N 46°13' W 123°44'0 0.7
2017-Oct-17 16:30N 46°13' W 123°45'1 2.3
2017-Oct-17 16:00N 46°13' W 123°46'1 2.2
2017-Oct-17 15:31N 46°13' W 123°45'2 4.2
2017-Oct-17 15:00N 46°12' W 123°47'1 1.1
2017-Oct-17 14:30N 46°12' W 123°48'0 0.0
2017-Oct-17 14:00N 46°12' W 123°48'0 0.0
2017-Oct-17 13:27N 46°12' W 123°48'0 0.0
2017-Oct-17 13:00N 46°12' W 123°48'0 0.0
2017-Oct-17 12:29N 46°12' W 123°48'0 0.0
2017-Oct-17 12:00N 46°12' W 123°48'0 0.0
2017-Oct-17 11:30N 46°12' W 123°48'0 0.0
2017-Oct-17 10:57N 46°12' W 123°48'0 0.0
2017-Oct-17 10:30N 46°12' W 123°48'0 0.0
2017-Oct-17 10:00N 46°12' W 123°48'0 0.0
2017-Oct-17 09:30N 46°12' W 123°48'0 0.0
2017-Oct-17 09:00N 46°12' W 123°48'0 0.0
2017-Oct-17 08:29N 46°12' W 123°48'0 0.0
2017-Oct-17 08:00N 46°12' W 123°48'0 0.0
2017-Oct-17 07:29N 46°12' W 123°48'0 0.0
2017-Oct-17 07:00N 46°12' W 123°48'0 0.0
2017-Oct-17 06:30N 46°12' W 123°48'0 0.0
2017-Oct-17 05:57N 46°12' W 123°48'0 0.0
2017-Oct-17 05:30N 46°12' W 123°48'0 0.0
2017-Oct-17 05:00N 46°12' W 123°48'0 0.0
2017-Oct-17 04:26N 46°12' W 123°48'0 0.0
2017-Oct-17 04:00N 46°12' W 123°48'0 0.0
2017-Oct-17 03:15N 46°12' W 123°48'0 0.0
2017-Oct-17 02:57N 46°12' W 123°48'0 0.0
2017-Oct-17 02:30N 46°12' W 123°48'0 0.0
2017-Oct-17 01:59N 46°12' W 123°48'0 0.0
2017-Oct-17 01:29N 46°12' W 123°48'0 0.0
2017-Oct-17 01:00N 46°12' W 123°48'0 0.0
2017-Oct-17 00:23N 46°12' W 123°48'0 0.0
2017-Oct-16 23:57N 46°12' W 123°48'0 0.0
2017-Oct-16 23:30N 46°12' W 123°48'0 0.0
2017-Oct-16 22:59N 46°12' W 123°48'0 0.0
2017-Oct-16 22:30N 46°12' W 123°48'0 0.0
2017-Oct-16 21:59N 46°12' W 123°48'0 0.0
2017-Oct-16 21:27N 46°12' W 123°48'0 0.0
2017-Oct-16 21:00N 46°12' W 123°48'1 2.3
2017-Oct-16 20:30N 46°12' W 123°47'510.7
2017-Oct-16 20:00N 46°15' W 123°40'1 1.9
2017-Oct-16 19:30N 46°16' W 123°39'2 4.9
2017-Oct-16 19:00N 46°15' W 123°42'1 1.9
2017-Oct-16 18:30N 46°15' W 123°41'1 2.9
2017-Oct-16 18:00N 46°15' W 123°39'0 0.6
2017-Oct-16 17:30N 46°16' W 123°38'2 3.2
2017-Oct-16 17:00N 46°15' W 123°41'2 4.0
2017-Oct-16 16:31N 46°14' W 123°43'611.0
2017-Oct-16 16:00N 46°12' W 123°50'0 0.0
2017-Oct-16 15:30N 46°12' W 123°50'0 0.0
2017-Oct-16 15:00N 46°12' W 123°50'2 2.7
2017-Oct-16 14:27N 46°12' W 123°48'0 0.0
2017-Oct-16 13:30N 46°12' W 123°48'0 0.0
2017-Oct-16 13:00N 46°12' W 123°48'0 0.0
2017-Oct-16 12:30N 46°12' W 123°48'0 0.0
2017-Oct-16 12:00N 46°12' W 123°48'0 0.0
2017-Oct-16 11:30N 46°12' W 123°48'0 0.0
2017-Oct-16 11:00N 46°12' W 123°48'0 0.0
2017-Oct-16 10:30N 46°12' W 123°48'0 0.0
2017-Oct-16 10:00N 46°12' W 123°48'0 0.0
2017-Oct-16 09:30N 46°12' W 123°48'0 0.0
2017-Oct-16 09:00N 46°12' W 123°48'0 0.0
2017-Oct-16 08:30N 46°12' W 123°48'0 0.0
2017-Oct-16 08:00N 46°12' W 123°48'0 0.0
2017-Oct-16 07:21N 46°12' W 123°48'0 0.0
2017-Oct-16 07:00N 46°12' W 123°48'0 0.0
2017-Oct-16 06:30N 46°12' W 123°48'0 0.0
2017-Oct-16 06:00N 46°12' W 123°48'0 0.0
2017-Oct-16 05:27N 46°12' W 123°48'0 0.0
2017-Oct-16 05:00N 46°12' W 123°48'0 0.0
2017-Oct-16 04:27N 46°12' W 123°48'0 0.0
2017-Oct-16 04:00N 46°12' W 123°48'0 0.0
2017-Oct-16 03:27N 46°12' W 123°48'0 0.0
2017-Oct-16 03:00N 46°12' W 123°48'0 0.0
2017-Oct-16 02:30N 46°12' W 123°48'0 0.0
2017-Oct-16 02:00N 46°12' W 123°48'0 0.0
2017-Oct-16 01:30N 46°12' W 123°48'0 0.0
2017-Oct-16 00:57N 46°12' W 123°48'0 0.0
2017-Oct-16 00:27N 46°12' W 123°48'0 0.0
2017-Oct-16 00:00N 46°12' W 123°48'0 0.0
2017-Oct-15 23:30N 46°12' W 123°48'0 0.0
2017-Oct-15 23:00N 46°12' W 123°48'0 0.0
2017-Oct-15 22:30N 46°12' W 123°48'0 0.0
2017-Oct-15 22:00N 46°12' W 123°48'0 0.0
2017-Oct-15 21:27N 46°12' W 123°48'0 0.0
2017-Oct-15 21:00N 46°12' W 123°48'0 0.0
2017-Oct-15 20:30N 46°12' W 123°48'0 0.0
2017-Oct-15 19:54N 46°12' W 123°48'0 0.0
2017-Oct-15 19:24N 46°12' W 123°48'0 0.0
2017-Oct-15 19:00N 46°12' W 123°48'0 0.0
2017-Oct-15 18:30N 46°12' W 123°48'0 0.0
2017-Oct-15 18:00N 46°12' W 123°48'0 0.0
2017-Oct-15 17:30N 46°12' W 123°48'0 0.0
2017-Oct-15 17:00N 46°12' W 123°48'0 0.0
2017-Oct-15 16:27N 46°12' W 123°48'0 0.0
2017-Oct-15 16:00N 46°12' W 123°48'0 0.0
2017-Oct-15 15:30N 46°12' W 123°48'0 0.0
2017-Oct-15 15:00N 46°12' W 123°48'0 0.0
2017-Oct-15 13:54N 46°12' W 123°48'0 0.0
2017-Oct-15 13:27N 46°12' W 123°48'0 0.0
2017-Oct-15 13:00N 46°12' W 123°48'0 0.0
2017-Oct-15 12:27N 46°12' W 123°48'0 0.0
2017-Oct-15 12:00N 46°12' W 123°48'0 0.0
2017-Oct-15 11:30N 46°12' W 123°48'0 0.0
2017-Oct-15 11:00N 46°12' W 123°48'0 0.0
2017-Oct-15 10:30N 46°12' W 123°48'0 0.0
2017-Oct-15 10:00N 46°12' W 123°48'0 0.0
2017-Oct-15 09:27N 46°12' W 123°48'0 0.0
2017-Oct-15 09:00N 46°12' W 123°48'0 0.0
2017-Oct-15 08:30N 46°12' W 123°48'0 0.0
2017-Oct-15 08:00N 46°12' W 123°48'0 0.0
2017-Oct-15 07:30N 46°12' W 123°48'0 0.0
2017-Oct-15 06:57N 46°12' W 123°48'0 0.0
2017-Oct-15 06:30N 46°12' W 123°48'0 0.0
2017-Oct-15 06:00N 46°12' W 123°48'0 0.0
2017-Oct-15 05:30N 46°12' W 123°48'0 0.0
2017-Oct-15 05:00N 46°12' W 123°48'0 0.0
2017-Oct-15 04:30N 46°12' W 123°48'0 0.0
2017-Oct-15 04:00N 46°12' W 123°48'0 0.0
2017-Oct-15 03:30N 46°12' W 123°48'0 0.0
2017-Oct-15 03:00N 46°12' W 123°48'0 0.0
2017-Oct-15 01:39N 46°12' W 123°48'0 0.0
2017-Oct-15 01:18N 46°12' W 123°48'0 0.0
2017-Oct-15 01:00N 46°12' W 123°48'0 0.0
2017-Oct-15 00:30N 46°12' W 123°48'0 0.0
2017-Oct-14 23:57N 46°12' W 123°48'0 0.0
2017-Oct-14 23:30N 46°12' W 123°48'0 0.0
2017-Oct-14 22:51N 46°12' W 123°48'0 0.0
2017-Oct-14 22:27N 46°12' W 123°48'0 0.0
2017-Oct-14 22:00N 46°12' W 123°48'0 0.0
2017-Oct-14 21:30N 46°12' W 123°48'0 0.0
2017-Oct-14 20:57N 46°12' W 123°48'0 0.0
2017-Oct-14 20:30N 46°12' W 123°48'0 0.0
2017-Oct-14 20:00N 46°12' W 123°48'0 0.0
2017-Oct-14 19:30N 46°12' W 123°48'0 0.0
2017-Oct-14 19:00N 46°12' W 123°48'0 0.0
2017-Oct-14 18:18N 46°12' W 123°48'0 0.0
2017-Oct-14 17:54N 46°12' W 123°48'0 0.0
2017-Oct-14 17:30N 46°12' W 123°48'0 0.0
2017-Oct-14 17:00N 46°12' W 123°48'0 0.0
2017-Oct-14 16:30N 46°12' W 123°48'0 0.0
2017-Oct-14 16:00N 46°12' W 123°48'0 0.0
2017-Oct-14 15:09N 46°12' W 123°48'0 0.0
2017-Oct-14 15:00N 46°12' W 123°48'0 0.0
2017-Oct-14 14:30N 46°12' W 123°48'0 0.0
2017-Oct-14 14:00N 46°12' W 123°48'0 0.0
2017-Oct-14 13:30N 46°12' W 123°48'0 0.0
2017-Oct-14 13:00N 46°12' W 123°48'0 0.0
2017-Oct-14 12:27N 46°12' W 123°48'0 0.0
2017-Oct-14 12:00N 46°12' W 123°48'0 0.0
2017-Oct-14 11:30N 46°12' W 123°48'0 0.0
2017-Oct-14 11:00N 46°12' W 123°48'0 0.0
2017-Oct-14 10:24N 46°12' W 123°48'0 0.0
2017-Oct-14 10:00N 46°12' W 123°48'0 0.0
2017-Oct-14 09:27N 46°12' W 123°48'0 0.0
2017-Oct-14 09:00N 46°12' W 123°48'0 0.0
2017-Oct-14 08:30N 46°12' W 123°48'0 0.0
2017-Oct-14 08:00N 46°12' W 123°48'0 0.0
2017-Oct-14 07:30N 46°12' W 123°48'0 0.0
2017-Oct-14 07:00N 46°12' W 123°48'0 0.0
2017-Oct-14 06:30N 46°12' W 123°48'0 0.0
2017-Oct-14 05:57N 46°12' W 123°48'0 0.0
2017-Oct-14 05:30N 46°12' W 123°48'0 0.0
2017-Oct-14 05:00N 46°12' W 123°48'0 0.0
2017-Oct-14 04:27N 46°12' W 123°48'0 0.0
2017-Oct-14 04:00N 46°12' W 123°48'0 0.0
2017-Oct-14 03:21N 46°12' W 123°48'0 0.0
2017-Oct-14 03:00N 46°12' W 123°48'0 0.0
2017-Oct-14 02:30N 46°12' W 123°48'0 0.0
2017-Oct-14 02:00N 46°12' W 123°48'0 0.0
2017-Oct-14 01:30N 46°12' W 123°48'0 0.0
2017-Oct-14 01:00N 46°12' W 123°48'0 0.0
2017-Oct-14 00:30N 46°12' W 123°48'0 0.0
2017-Oct-14 00:00N 46°12' W 123°48'0 0.0
2017-Oct-13 23:30N 46°12' W 123°48'0 0.0
2017-Oct-13 23:00N 46°12' W 123°48'0 0.0
2017-Oct-13 22:30N 46°12' W 123°48'0 0.0
2017-Oct-13 22:00N 46°12' W 123°48'0 0.0
2017-Oct-13 21:15N 46°12' W 123°48'0 0.0
2017-Oct-13 21:00N 46°12' W 123°48'0 0.0
2017-Oct-13 20:30N 46°12' W 123°48'0 0.0
2017-Oct-13 20:00N 46°12' W 123°48'0 0.0
2017-Oct-13 19:30N 46°12' W 123°48'0 0.0
2017-Oct-13 19:00N 46°12' W 123°48'0 0.0
2017-Oct-13 18:21N 46°12' W 123°48'0 0.0
2017-Oct-13 18:00N 46°12' W 123°48'0 0.0
2017-Oct-13 17:12N 46°12' W 123°48'0 0.0
2017-Oct-13 17:00N 46°12' W 123°48'0 0.0
2017-Oct-13 16:30N 46°12' W 123°48'0 0.0
2017-Oct-13 16:00N 46°12' W 123°48'0 0.0
2017-Oct-13 15:30N 46°12' W 123°48'0 0.0
2017-Oct-13 15:00N 46°12' W 123°48'0 0.0
2017-Oct-13 14:30N 46°12' W 123°48'0 0.0
2017-Oct-13 13:51N 46°12' W 123°48'0 0.0
2017-Oct-13 13:30N 46°12' W 123°48'0 0.0
2017-Oct-13 12:42N 46°12' W 123°48'0 0.0
2017-Oct-13 12:30N 46°12' W 123°48'0 0.0
2017-Oct-13 11:54N 46°12' W 123°48'0 0.0
2017-Oct-13 11:30N 46°12' W 123°48'0 0.0
2017-Oct-13 11:00N 46°12' W 123°48'0 0.0
2017-Oct-13 10:30N 46°12' W 123°48'0 0.0
2017-Oct-13 10:00N 46°12' W 123°48'0 0.0
2017-Oct-13 09:15N 46°12' W 123°48'0 0.0
2017-Oct-13 09:00N 46°12' W 123°48'0 0.0
2017-Oct-13 08:12N 46°12' W 123°48'0 0.0
2017-Oct-13 07:51N 46°12' W 123°48'0 0.0
2017-Oct-13 07:30N 46°12' W 123°48'0 0.0
2017-Oct-13 06:57N 46°12' W 123°48'0 0.0
2017-Oct-13 06:30N 46°12' W 123°48'0 0.0
2017-Oct-13 05:54N 46°12' W 123°48'0 0.0
2017-Oct-13 05:30N 46°12' W 123°48'0 0.0
2017-Oct-13 05:00N 46°12' W 123°48'0 0.0
2017-Oct-13 04:30N 46°12' W 123°48'0 0.0
2017-Oct-13 04:00N 46°12' W 123°48'0 0.0
2017-Oct-13 03:30N 46°12' W 123°48'0 0.0
2017-Oct-13 03:00N 46°12' W 123°48'0 0.0
2017-Oct-13 02:21N 46°12' W 123°48'0 0.0
2017-Oct-13 02:00N 46°12' W 123°48'0 0.0
2017-Oct-13 01:30N 46°12' W 123°48'0 0.0
2017-Oct-13 01:00N 46°12' W 123°48'0 0.0
2017-Oct-13 00:30N 46°12' W 123°48'0 0.0
2017-Oct-13 00:00N 46°12' W 123°48'0 0.0
2017-Oct-12 23:30N 46°12' W 123°48'0 0.0
2017-Oct-12 23:00N 46°12' W 123°48'0 0.0
2017-Oct-12 22:27N 46°12' W 123°48'0 0.0
2017-Oct-12 21:54N 46°12' W 123°48'0 0.0
2017-Oct-12 21:30N 46°12' W 123°48'0 0.0
2017-Oct-12 21:00N 46°12' W 123°48'0 0.0
2017-Oct-12 20:30N 46°12' W 123°48'0 0.0
2017-Oct-12 20:00N 46°12' W 123°48'0 0.0
2017-Oct-12 19:30N 46°12' W 123°48'0 0.0
2017-Oct-12 19:00N 46°12' W 123°48'0 0.9
2017-Oct-12 18:30N 46°12' W 123°49'2 4.6
2017-Oct-12 18:01N 46°11' W 123°52'1 1.5
2017-Oct-12 17:30N 46°12' W 123°53'2 2.8
2017-Oct-12 16:56N 46°12' W 123°55'2 4.0
2017-Oct-12 16:30N 46°11' W 123°53'1 2.5
2017-Oct-12 16:01N 46°12' W 123°51'1 1.8
2017-Oct-12 15:31N 46°12' W 123°52'2 4.3
2017-Oct-12 15:01N 46°12' W 123°55'3 6.2
2017-Oct-12 14:31N 46°12' W 123°51'2 2.6
2017-Oct-12 13:43N 46°12' W 123°48'0 0.0
2017-Oct-12 13:28N 46°12' W 123°48'0 0.0
2017-Oct-12 12:55N 46°12' W 123°48'0 0.0
2017-Oct-12 12:28N 46°12' W 123°48'0 0.0
2017-Oct-12 11:52N 46°12' W 123°48'0 0.0
2017-Oct-12 11:28N 46°12' W 123°48'0 0.0
2017-Oct-12 10:55N 46°12' W 123°48'0 0.0
2017-Oct-12 10:28N 46°12' W 123°48'0 0.0
2017-Oct-12 09:49N 46°12' W 123°48'0 0.0
2017-Oct-12 09:28N 46°12' W 123°48'0 0.0
2017-Oct-12 08:52N 46°12' W 123°48'0 0.0
2017-Oct-12 08:28N 46°12' W 123°48'0 0.0
2017-Oct-12 07:44N 46°12' W 123°48'0 0.0
2017-Oct-12 07:28N 46°12' W 123°48'0 0.0
2017-Oct-12 06:56N 46°12' W 123°48'0 0.0
2017-Oct-12 06:29N 46°12' W 123°48'0 0.0
2017-Oct-12 05:58N 46°12' W 123°48'0 0.0
2017-Oct-12 05:25N 46°12' W 123°48'0 0.0
2017-Oct-12 04:58N 46°12' W 123°48'0 0.0
2017-Oct-12 04:25N 46°12' W 123°48'0 0.0
2017-Oct-12 03:58N 46°12' W 123°48'0 0.0
2017-Oct-12 03:28N 46°12' W 123°48'0 0.0
2017-Oct-12 02:58N 46°12' W 123°48'0 0.0
2017-Oct-12 02:25N 46°12' W 123°48'0 0.0
2017-Oct-12 01:58N 46°12' W 123°48'0 0.0
2017-Oct-12 01:28N 46°12' W 123°48'0 0.0
2017-Oct-12 00:55N 46°12' W 123°48'0 0.0
2017-Oct-12 00:07N 46°12' W 123°48'0 0.0
2017-Oct-11 23:46N 46°12' W 123°48'0 0.0
2017-Oct-11 23:28N 46°12' W 123°48'0 0.0
2017-Oct-11 22:58N 46°12' W 123°48'0 0.0
2017-Oct-11 22:19N 46°12' W 123°48'0 0.0
2017-Oct-11 21:55N 46°12' W 123°48'0 0.0
2017-Oct-11 21:28N 46°12' W 123°48'0 0.0
2017-Oct-11 20:58N 46°12' W 123°48'0 0.0
2017-Oct-11 20:28N 46°12' W 123°48'0 0.0
2017-Oct-11 19:58N 46°12' W 123°48'0 0.0
2017-Oct-11 19:28N 46°12' W 123°48'0 0.0
2017-Oct-11 18:58N 46°12' W 123°48'0 0.0
2017-Oct-11 18:28N 46°12' W 123°48'0 0.0
2017-Oct-11 17:58N 46°12' W 123°48'0 0.0
2017-Oct-11 17:28N 46°12' W 123°48'0 0.0
2017-Oct-11 16:58N 46°12' W 123°48'0 0.0
2017-Oct-10 23:55N 46°12' W 123°48'0 0.0
2017-Oct-10 23:29N 46°12' W 123°48'0 0.0
2017-Oct-10 22:55N 46°12' W 123°48'0 0.0
2017-Oct-10 22:28N 46°12' W 123°48'0 0.0
2017-Oct-10 21:59N 46°12' W 123°48'4 8.3
2017-Oct-10 21:30N 46°11' W 123°54'1 2.6
2017-Oct-10 21:00N 46°12' W 123°56'0 0.2
2017-Oct-10 20:30N 46°12' W 123°55'1 1.1
2017-Oct-10 20:01N 46°12' W 123°56'0 1.0
2017-Oct-10 19:30N 46°12' W 123°57'1 1.6
2017-Oct-10 19:01N 46°13' W 123°57'4 8.1
2017-Oct-10 18:30N 46°12' W 123°52'3 4.3
2017-Oct-10 17:55N 46°12' W 123°48'0 0.0
2017-Oct-10 17:28N 46°12' W 123°48'0 0.0
2017-Oct-10 16:55N 46°12' W 123°48'0 0.0
2017-Oct-10 16:28N 46°12' W 123°48'0 0.0
2017-Oct-10 15:58N 46°12' W 123°48'0 0.0
2017-Oct-10 15:25N 46°12' W 123°48'0 0.0
2017-Oct-10 14:58N 46°12' W 123°48'0 0.0
2017-Oct-10 13:58N 46°12' W 123°48'0 0.0
2017-Oct-10 13:28N 46°12' W 123°48'0 0.0
2017-Oct-10 12:58N 46°12' W 123°48'0 0.0
2017-Oct-10 12:07N 46°12' W 123°48'0 0.0
2017-Oct-10 11:58N 46°12' W 123°48'0 0.0
2017-Oct-10 11:28N 46°12' W 123°48'0 0.0
2017-Oct-10 10:58N 46°12' W 123°48'0 0.0
2017-Oct-10 10:28N 46°12' W 123°48'0 0.0
2017-Oct-10 09:58N 46°12' W 123°48'0 0.0
2017-Oct-10 09:16N 46°12' W 123°48'0 0.0
2017-Oct-10 08:49N 46°12' W 123°48'0 0.0
2017-Oct-10 08:28N 46°12' W 123°48'0 0.0
2017-Oct-10 07:58N 46°12' W 123°48'0 0.0
2017-Oct-10 07:28N 46°12' W 123°48'0 0.0
2017-Oct-10 06:58N 46°12' W 123°48'0 0.0
2017-Oct-10 06:28N 46°12' W 123°48'0 0.0
2017-Oct-10 05:55N 46°12' W 123°48'0 0.0
2017-Oct-10 05:28N 46°12' W 123°48'0 0.0
2017-Oct-10 04:58N 46°12' W 123°48'0 0.0
2017-Oct-10 04:28N 46°12' W 123°48'0 0.0
2017-Oct-10 03:49N 46°12' W 123°48'0 0.0
2017-Oct-10 03:28N 46°12' W 123°48'0 0.0
2017-Oct-10 02:55N 46°12' W 123°48'0 0.0
2017-Oct-10 02:28N 46°12' W 123°48'0 0.0
2017-Oct-10 01:58N 46°12' W 123°48'0 0.0
2017-Oct-10 01:10N 46°12' W 123°48'0 0.0
2017-Oct-10 00:58N 46°12' W 123°48'0 0.0
2017-Oct-10 00:28N 46°12' W 123°48'0 0.0
2017-Oct-09 23:58N 46°12' W 123°48'0 0.0
2017-Oct-09 23:28N 46°12' W 123°48'0 0.0
2017-Oct-09 22:58N 46°12' W 123°48'0 0.0
2017-Oct-09 22:28N 46°12' W 123°48'0 0.0
2017-Oct-09 21:58N 46°12' W 123°48'0 0.0
2017-Oct-09 21:25N 46°12' W 123°48'0 0.0
2017-Oct-09 20:58N 46°12' W 123°48'0 0.0
2017-Oct-09 20:28N 46°12' W 123°48'0 0.0
2017-Oct-09 19:58N 46°12' W 123°48'0 0.0
2017-Oct-09 19:25N 46°12' W 123°48'0 0.0
2017-Oct-09 18:58N 46°12' W 123°48'0 0.0
2017-Oct-09 18:28N 46°12' W 123°48'0 0.0
2017-Oct-09 17:58N 46°12' W 123°48'0 0.0
2017-Oct-09 17:25N 46°12' W 123°48'0 0.0
2017-Oct-09 16:58N 46°12' W 123°48'0 0.0
2017-Oct-09 16:28N 46°12' W 123°48'0 0.0
2017-Oct-09 15:55N 46°12' W 123°48'0 0.0
2017-Oct-09 15:28N 46°12' W 123°48'0 0.0
2017-Oct-09 14:58N 46°12' W 123°48'0 0.0
2017-Oct-09 14:28N 46°12' W 123°48'0 0.0
2017-Oct-09 13:58N 46°12' W 123°48'0 0.0
2017-Oct-09 13:28N 46°12' W 123°48'0 0.0
2017-Oct-09 12:55N 46°12' W 123°48'0 0.0
2017-Oct-09 12:28N 46°12' W 123°48'0 0.0
2017-Oct-09 11:58N 46°12' W 123°48'0 0.0
2017-Oct-09 11:28N 46°12' W 123°48'0 0.0
2017-Oct-09 10:58N 46°12' W 123°48'0 0.0
2017-Oct-09 10:13N 46°12' W 123°48'0 0.0
2017-Oct-09 09:58N 46°12' W 123°48'0 0.0
2017-Oct-09 09:04N 46°12' W 123°48'0 0.0
2017-Oct-09 08:58N 46°12' W 123°48'0 0.0
2017-Oct-09 08:28N 46°12' W 123°48'0 0.0
2017-Oct-09 07:58N 46°12' W 123°48'0 0.0
2017-Oct-09 07:28N 46°12' W 123°48'0 0.0
2017-Oct-09 06:58N 46°12' W 123°48'0 0.0
2017-Oct-09 06:28N 46°12' W 123°48'0 0.0
2017-Oct-09 05:58N 46°12' W 123°48'  

Dump ship's entire track history